createdAt,value
2023-02-28T00:00:13.625Z,5.90
2023-02-28T00:03:02.494Z,5.80
2023-02-28T00:05:32.643Z,5.40
2023-02-28T00:08:01.457Z,4.90
2023-02-28T00:10:32.251Z,4.80
2023-02-28T00:13:04.468Z,4.80
2023-02-28T00:15:34.473Z,6.60
2023-02-28T00:18:04.589Z,7.10
2023-02-28T00:20:33.560Z,6.70
2023-02-28T00:23:03.991Z,6.60
2023-02-28T00:25:33.661Z,5.60
2023-02-28T00:28:02.793Z,5.30
2023-02-28T00:30:32.980Z,5.30
2023-02-28T00:33:02.663Z,4.80
2023-02-28T00:35:31.646Z,4.70
2023-02-28T00:38:00.537Z,4.70
2023-02-28T00:40:31.038Z,4.60
2023-02-28T00:42:59.984Z,4.70
2023-02-28T00:45:29.470Z,5.20
2023-02-28T00:48:00.962Z,4.90
2023-02-28T00:50:29.966Z,4.80
2023-02-28T00:53:01.751Z,5.30
2023-02-28T00:55:30.622Z,3.50
2023-02-28T00:58:00.884Z,3.90
2023-02-28T01:00:31.302Z,4.00
2023-02-28T01:03:00.385Z,4.40
2023-02-28T01:05:29.605Z,4.20
2023-02-28T01:07:59.612Z,4.50
2023-02-28T01:10:32.595Z,4.00
2023-02-28T01:13:03.642Z,4.90
2023-02-28T01:15:35.010Z,4.80
2023-02-28T01:18:05.027Z,5.00
2023-02-28T01:20:34.711Z,5.20
2023-02-28T01:23:04.732Z,4.70
2023-02-28T01:25:38.926Z,5.10
2023-02-28T01:28:12.638Z,4.30
2023-02-28T01:30:44.063Z,4.40
2023-02-28T01:33:27.723Z,5.20
2023-02-28T01:36:30.314Z,4.50
2023-02-28T01:39:03.931Z,4.60
2023-02-28T01:41:39.877Z,4.60
2023-02-28T01:44:49.680Z,4.80
2023-02-28T01:47:20.934Z,4.90
2023-02-28T01:50:21.285Z,4.60
2023-02-28T01:53:21.516Z,4.50
2023-02-28T01:56:13.759Z,4.20
2023-02-28T01:58:45.180Z,3.80
2023-02-28T02:01:53.925Z,4.60
2023-02-28T02:04:53.917Z,4.50
2023-02-28T02:07:27.413Z,4.60
2023-02-28T02:10:16.374Z,4.90
2023-02-28T02:12:58.174Z,3.80
2023-02-28T02:15:50.541Z,4.40
2023-02-28T02:18:37.738Z,4.10
2023-02-28T02:21:28.086Z,3.00
2023-02-28T02:24:38.025Z,4.00
2023-02-28T02:27:57.405Z,3.70
2023-02-28T02:30:58.059Z,3.80
2023-02-28T02:33:48.981Z,4.00
2023-02-28T02:36:30.670Z,3.90
2023-02-28T02:39:14.023Z,4.20
2023-02-28T02:41:59.571Z,4.10
2023-02-28T02:44:46.239Z,3.80
2023-02-28T02:47:22.904Z,4.30
2023-02-28T02:49:58.698Z,4.10
2023-02-28T02:52:48.024Z,4.70
2023-02-28T02:55:19.750Z,4.70
2023-02-28T02:57:53.804Z,4.20
2023-02-28T03:00:31.108Z,4.00
2023-02-28T03:03:04.598Z,4.20
2023-02-28T03:05:43.339Z,5.20
2023-02-28T03:08:12.681Z,4.20
2023-02-28T03:10:49.664Z,4.30
2023-02-28T03:13:50.108Z,3.60
2023-02-28T03:16:33.260Z,3.70
2023-02-28T03:19:30.615Z,4.40
2023-02-28T03:22:34.537Z,4.50
2023-02-28T03:25:22.020Z,3.60
2023-02-28T03:28:04.234Z,4.30
2023-02-28T03:30:59.387Z,4.10
2023-02-28T03:33:34.925Z,3.70
2023-02-28T03:36:14.758Z,4.20
2023-02-28T03:38:50.604Z,4.20
2023-02-28T03:41:24.580Z,3.90
2023-02-28T03:44:17.936Z,4.30
2023-02-28T03:46:54.866Z,3.80
2023-02-28T03:49:32.634Z,4.50
2023-02-28T03:52:05.362Z,4.70
2023-02-28T03:54:39.564Z,4.20
2023-02-28T03:57:17.348Z,4.20
2023-02-28T03:59:52.264Z,3.90
2023-02-28T04:02:23.756Z,4.30
2023-02-28T04:04:52.451Z,4.30
2023-02-28T04:07:25.141Z,4.00
2023-02-28T04:09:54.197Z,3.80
2023-02-28T04:12:24.378Z,3.50
2023-02-28T04:14:53.075Z,4.50
2023-02-28T04:17:21.775Z,4.10
2023-02-28T04:19:51.572Z,4.50
2023-02-28T04:22:21.500Z,4.50
2023-02-28T04:24:50.206Z,6.60
2023-02-28T04:27:19.014Z,7.50
2023-02-28T04:29:47.601Z,5.40
2023-02-28T04:32:16.229Z,5.30
2023-02-28T04:34:44.851Z,5.30
2023-02-28T04:37:14.412Z,4.60
2023-02-28T04:39:46.012Z,3.80
2023-02-28T04:42:16.496Z,4.10
2023-02-28T04:44:45.113Z,4.30
2023-02-28T04:47:13.839Z,4.60
2023-02-28T04:49:43.383Z,4.10
2023-02-28T04:52:11.916Z,3.60
2023-02-28T04:54:40.739Z,3.80
2023-02-28T04:57:09.584Z,3.60
2023-02-28T04:59:39.049Z,3.60
2023-02-28T05:02:08.313Z,4.10
2023-02-28T05:04:37.948Z,3.90
2023-02-28T05:07:06.735Z,4.00
2023-02-28T05:09:35.839Z,3.90
2023-02-28T05:12:04.517Z,3.80
2023-02-28T05:14:33.066Z,3.60
2023-02-28T05:17:01.901Z,3.90
2023-02-28T05:19:31.871Z,3.90
2023-02-28T05:22:01.030Z,4.20
2023-02-28T05:24:29.530Z,4.20
2023-02-28T05:26:58.536Z,4.00
2023-02-28T05:29:27.022Z,4.20
2023-02-28T05:31:55.656Z,3.80
2023-02-28T05:34:24.196Z,3.80
2023-02-28T05:36:52.723Z,3.30
2023-02-28T05:39:21.357Z,3.50
2023-02-28T05:41:49.881Z,4.10
2023-02-28T05:44:18.550Z,3.50
2023-02-28T05:46:47.119Z,3.90
2023-02-28T05:49:15.568Z,3.40
2023-02-28T05:51:44.020Z,3.90
2023-02-28T05:54:13.949Z,3.90
2023-02-28T05:56:45.261Z,3.80
2023-02-28T05:59:14.465Z,3.70
2023-02-28T06:01:49.501Z,3.30
2023-02-28T06:04:34.351Z,3.30
2023-02-28T06:07:02.978Z,4.20
2023-02-28T06:09:31.494Z,4.10
2023-02-28T06:12:01.557Z,4.20
2023-02-28T06:14:30.128Z,4.00
2023-02-28T06:16:59.904Z,4.10
2023-02-28T06:19:28.603Z,4.00
2023-02-28T06:21:58.176Z,3.90
2023-02-28T06:24:31.552Z,4.50
2023-02-28T06:27:06.338Z,3.80
2023-02-28T06:29:40.943Z,4.30
2023-02-28T06:32:09.717Z,4.20
2023-02-28T06:34:38.214Z,3.80
2023-02-28T06:37:06.714Z,3.90
2023-02-28T06:39:35.672Z,4.90
2023-02-28T06:42:04.627Z,4.50
2023-02-28T06:44:36.589Z,4.10
2023-02-28T06:47:07.309Z,4.30
2023-02-28T06:49:37.422Z,5.40
2023-02-28T06:52:06.335Z,4.50
2023-02-28T06:54:34.832Z,4.30
2023-02-28T06:57:03.396Z,4.80
2023-02-28T06:59:32.312Z,5.70
2023-02-28T07:02:01.570Z,5.50
2023-02-28T07:04:30.161Z,5.70
2023-02-28T07:06:58.916Z,5.70
2023-02-28T07:09:31.184Z,5.60
2023-02-28T07:12:02.352Z,6.90
2023-02-28T07:14:31.688Z,6.00
2023-02-28T07:17:00.908Z,5.40
2023-02-28T07:19:29.619Z,4.90
2023-02-28T07:21:58.286Z,5.30
2023-02-28T07:24:29.597Z,6.20
2023-02-28T07:26:58.780Z,5.30
2023-02-28T07:29:27.995Z,5.60
2023-02-28T07:31:57.572Z,6.20
2023-02-28T07:34:27.296Z,5.80
2023-02-28T07:36:56.324Z,6.40
2023-02-28T07:39:25.241Z,6.40
2023-02-28T07:41:54.499Z,6.20
2023-02-28T07:44:28.258Z,5.40
2023-02-28T07:46:58.054Z,5.50
2023-02-28T07:49:26.815Z,5.80
2023-02-28T07:51:55.528Z,6.00
2023-02-28T07:54:25.028Z,6.00
2023-02-28T07:56:53.718Z,6.70
2023-02-28T07:59:22.408Z,5.40
2023-02-28T08:01:52.657Z,5.90
2023-02-28T08:04:26.125Z,5.30
2023-02-28T08:06:57.350Z,5.00
2023-02-28T08:09:27.486Z,5.30
2023-02-28T08:11:57.241Z,4.40
2023-02-28T08:14:27.897Z,5.60
2023-02-28T08:17:00.126Z,4.90
2023-02-28T08:19:31.259Z,5.40
2023-02-28T08:22:04.963Z,5.20
2023-02-28T08:24:44.972Z,5.40
2023-02-28T08:27:14.380Z,4.60
2023-02-28T08:29:44.240Z,4.70
2023-02-28T08:32:29.323Z,5.00
2023-02-28T08:35:34.101Z,4.30
2023-02-28T08:39:04.002Z,4.40
2023-02-28T08:46:37.619Z,4.60
2023-02-28T08:50:30.334Z,5.20
2023-02-28T08:53:21.129Z,4.80
2023-02-28T08:56:14.872Z,4.80
2023-02-28T08:58:45.587Z,4.70
2023-02-28T09:01:20.962Z,4.20
2023-02-28T09:03:53.099Z,4.10
2023-02-28T09:06:47.793Z,4.20
2023-02-28T09:09:24.016Z,3.20
2023-02-28T09:12:02.107Z,3.80
2023-02-28T09:14:36.351Z,3.90
2023-02-28T09:17:11.875Z,3.80
2023-02-28T09:19:50.003Z,3.80
2023-02-28T09:22:30.238Z,4.30
2023-02-28T09:25:09.028Z,3.30
2023-02-28T09:28:08.457Z,2.40
2023-02-28T09:30:57.952Z,3.20
2023-02-28T09:34:00.942Z,3.90
2023-02-28T09:39:56.820Z,3.80
2023-02-28T09:43:10.102Z,3.70
2023-02-28T16:39:12.764Z,4.90
2023-02-28T16:39:36.140Z,8.90
2023-02-28T16:42:56.165Z,7.90
2023-02-28T16:46:07.944Z,8.30
2023-02-28T16:48:59.389Z,7.10
2023-02-28T16:51:44.552Z,8.30
2023-02-28T16:54:21.112Z,6.80
2023-02-28T16:56:57.649Z,6.50
2023-02-28T16:59:30.532Z,5.80
2023-02-28T17:02:02.467Z,5.90
2023-02-28T17:04:36.537Z,7.60
2023-02-28T17:07:20.508Z,8.10
2023-02-28T17:09:52.487Z,9.90
2023-02-28T17:12:25.187Z,11.80
2023-02-28T17:14:58.840Z,8.70
2023-02-28T17:17:34.057Z,20.70
2023-02-28T17:20:11.678Z,28.60
2023-02-28T17:22:43.683Z,31.50
2023-02-28T17:25:16.460Z,25.00
2023-02-28T17:27:51.524Z,25.00
2023-02-28T17:30:26.094Z,22.60
2023-02-28T17:33:09.749Z,23.60
2023-02-28T17:35:40.419Z,24.50
2023-02-28T17:38:19.642Z,19.70
2023-02-28T17:40:51.285Z,18.00
2023-02-28T17:43:21.045Z,13.20
2023-02-28T17:45:50.349Z,10.30
2023-02-28T17:48:20.065Z,8.70
2023-02-28T17:50:52.505Z,6.80
2023-02-28T17:53:24.675Z,8.60
2023-02-28T17:55:54.706Z,10.70
2023-02-28T17:58:23.983Z,9.20
2023-02-28T18:00:55.568Z,9.30
2023-02-28T18:03:26.498Z,10.10
2023-02-28T18:05:56.738Z,11.20
2023-02-28T18:08:27.260Z,10.50
2023-02-28T18:10:58.134Z,11.80
2023-02-28T18:13:28.989Z,11.10
2023-02-28T18:15:59.315Z,10.90
2023-02-28T18:18:31.032Z,10.50
2023-02-28T18:21:02.738Z,8.50
2023-02-28T18:23:32.618Z,9.30
2023-02-28T18:26:07.126Z,9.90
2023-02-28T18:28:38.127Z,9.60
2023-02-28T18:31:10.151Z,10.20
2023-02-28T18:33:40.129Z,9.40
2023-02-28T18:36:11.371Z,10.50
2023-02-28T18:38:46.704Z,9.90
2023-02-28T18:41:21.836Z,7.70
2023-02-28T18:43:55.813Z,8.70
2023-02-28T18:46:25.296Z,6.80
2023-02-28T18:48:58.521Z,13.60
2023-02-28T18:51:47.758Z,22.20
2023-02-28T18:54:19.563Z,9.70
2023-02-28T18:57:12.902Z,10.20
2023-02-28T18:59:45.256Z,8.80
2023-02-28T19:02:23.388Z,9.40
2023-02-28T19:04:53.590Z,11.50
2023-02-28T19:07:44.205Z,9.20
2023-02-28T19:10:19.476Z,6.20
2023-02-28T19:12:50.539Z,5.70
2023-02-28T19:15:22.349Z,6.70
2023-02-28T19:17:56.027Z,7.90
2023-02-28T19:20:25.993Z,8.70
2023-02-28T19:22:55.925Z,9.10
2023-02-28T19:25:27.580Z,6.90
2023-02-28T19:28:03.936Z,6.80
2023-02-28T19:30:36.476Z,6.30
2023-02-28T19:33:08.466Z,9.20
2023-02-28T19:35:37.269Z,8.20
2023-02-28T19:38:06.077Z,10.50
2023-02-28T19:40:35.316Z,11.50
2023-02-28T19:43:05.430Z,14.60
2023-02-28T19:45:37.174Z,13.10
2023-02-28T19:48:06.371Z,11.30
2023-02-28T19:50:37.849Z,14.00
2023-02-28T19:53:14.306Z,14.80
2023-02-28T19:55:43.489Z,14.70
2023-02-28T19:58:13.064Z,23.00
2023-02-28T20:00:42.999Z,10.50
2023-02-28T20:03:12.932Z,7.80
2023-02-28T20:05:42.943Z,10.70
2023-02-28T20:08:14.042Z,8.90
2023-02-28T20:10:43.792Z,7.40
2023-02-28T20:13:16.664Z,6.50
2023-02-28T20:15:45.891Z,6.00
2023-02-28T20:18:16.620Z,5.90
2023-02-28T20:20:45.399Z,5.10
2023-02-28T20:23:19.383Z,5.60
2023-02-28T20:25:48.072Z,5.80
2023-02-28T20:28:17.074Z,6.50
2023-02-28T20:30:50.508Z,6.90
2023-02-28T20:33:19.662Z,5.40
2023-02-28T20:35:49.869Z,6.00
2023-02-28T20:38:19.360Z,6.00
2023-02-28T20:40:48.029Z,7.40
2023-02-28T20:43:16.705Z,6.70
2023-02-28T20:45:53.577Z,6.70
2023-02-28T20:48:23.057Z,6.10
2023-02-28T20:50:54.536Z,6.30
2023-02-28T20:53:25.974Z,7.10
2023-02-28T20:55:58.433Z,20.10
2023-02-28T20:58:31.298Z,13.70
2023-02-28T21:01:18.775Z,9.70
2023-02-28T21:03:51.746Z,5.40
2023-02-28T21:06:22.221Z,4.40
2023-02-28T21:08:51.398Z,5.20
2023-02-28T21:11:25.986Z,3.60
2023-02-28T21:14:03.851Z,3.80
2023-02-28T21:16:33.297Z,4.20
2023-02-28T21:19:04.831Z,7.90
2023-02-28T21:21:39.726Z,7.10
2023-02-28T21:24:08.576Z,5.00
2023-02-28T21:26:40.367Z,4.00
2023-02-28T21:29:09.270Z,4.60
2023-02-28T21:31:38.521Z,3.90
2023-02-28T21:34:09.991Z,3.20
2023-02-28T21:36:42.363Z,3.00
2023-02-28T21:39:20.532Z,3.50
2023-02-28T21:41:49.853Z,6.20
2023-02-28T21:44:19.153Z,4.40
2023-02-28T21:46:51.278Z,4.20
2023-02-28T21:49:19.924Z,4.10
2023-02-28T21:51:49.025Z,5.70
2023-02-28T21:54:17.706Z,6.50
2023-02-28T21:56:46.446Z,5.40
2023-02-28T21:59:15.983Z,5.30
2023-02-28T22:01:45.664Z,5.80
2023-02-28T22:04:22.698Z,12.70
2023-02-28T22:06:55.027Z,10.10
2023-02-28T22:09:23.895Z,7.50
2023-02-28T22:11:52.531Z,6.60
2023-02-28T22:14:21.668Z,6.00
2023-02-28T22:16:54.722Z,5.40
2023-02-28T22:19:24.555Z,5.60
2023-02-28T22:21:54.080Z,5.00
2023-02-28T22:24:24.828Z,4.20
2023-02-28T22:26:54.183Z,2.90
2023-02-28T22:29:23.017Z,2.70
2023-02-28T22:31:51.953Z,3.10
2023-02-28T22:34:20.697Z,2.70
2023-02-28T22:36:49.212Z,2.60
2023-02-28T22:39:17.851Z,3.10
2023-02-28T22:41:46.344Z,2.90
2023-02-28T22:44:14.807Z,3.40
2023-02-28T22:46:43.463Z,4.10
2023-02-28T22:49:12.005Z,4.30
2023-02-28T22:51:40.444Z,4.50
2023-02-28T22:54:09.738Z,4.10
2023-02-28T22:56:38.733Z,4.40
2023-02-28T22:59:07.280Z,4.40
2023-02-28T23:01:36.063Z,4.10
2023-02-28T23:04:04.938Z,4.30
2023-02-28T23:06:38.027Z,2.60
2023-02-28T23:09:08.885Z,4.10
2023-02-28T23:11:40.961Z,4.60
2023-02-28T23:14:12.968Z,3.90
2023-02-28T23:17:01.333Z,4.80
2023-02-28T23:19:31.480Z,4.60
2023-02-28T23:22:01.465Z,5.30
2023-02-28T23:24:32.730Z,4.70
2023-02-28T23:27:04.570Z,5.80
2023-02-28T23:29:34.267Z,4.70
2023-02-28T23:32:03.703Z,4.60
2023-02-28T23:34:32.422Z,5.10
2023-02-28T23:37:02.508Z,5.10
2023-02-28T23:39:31.922Z,6.60
2023-02-28T23:42:02.086Z,5.40
2023-02-28T23:44:31.076Z,5.80
2023-02-28T23:46:59.780Z,6.80
2023-02-28T23:49:28.637Z,5.00
2023-02-28T23:51:57.859Z,5.70
2023-02-28T23:54:26.308Z,4.90
2023-02-28T23:56:54.736Z,6.20
2023-02-28T23:59:23.393Z,5.40
